Time;durP1;ratioP1;P1;durP2;ratioP2;P2;SDS_P1;SDS_P2;PMS_P1;PMS_P2;Temp;Humidity;BMP_temperature;BMP_pressure;BME280_temperature;BME280_humidity;BME280_pressure;Samples;Min_cycle;Max_cycle;Signal;HPM_P1;HPM_P2
2022/11/24 00:01:19;;;;;;;22.38;5.97;;;;;;;;;;4977638;28;20426;-79
2022/11/24 00:03:46;;;;;;;20.13;5.07;;;;;;;;;;4995395;28;20221;-79
2022/11/24 00:06:13;;;;;;;25.07;5.17;;;;;;;;;;4980324;28;20186;-79
2022/11/24 00:08:41;;;;;;;28.20;5.30;;;;;;;;;;4979616;28;20218;-79
2022/11/24 00:11:08;;;;;;;26.73;6.03;;;;;;;;;;4979926;28;20190;-79
2022/11/24 00:13:37;;;;;;;26.17;6.18;;;;;;;;;;4978602;28;20427;-80
2022/11/24 00:16:08;;;;;;;25.95;6.65;;;;;;;;;;4978947;28;20432;-81
2022/11/24 00:18:34;;;;;;;21.10;4.97;;;;;;;;;;4979802;28;20182;-82
2022/11/24 00:21:00;;;;;;;23.87;5.50;;;;;;;;;;4964041;28;20186;-81
2022/11/24 00:23:26;;;;;;;25.67;5.30;;;;;;;;;;4960339;28;20229;-81
2022/11/24 00:25:52;;;;;;;20.70;4.87;;;;;;;;;;4960350;28;20236;-81
2022/11/24 00:28:18;;;;;;;24.58;6.30;;;;;;;;;;4943392;28;20442;-82
2022/11/24 00:30:44;;;;;;;23.75;5.85;;;;;;;;;;4944208;28;20429;-81
2022/11/24 00:33:10;;;;;;;27.57;5.50;;;;;;;;;;4956940;28;20193;-79
2022/11/24 00:35:36;;;;;;;22.63;5.20;;;;;;;;;;4963267;28;20253;-79
2022/11/24 00:38:02;;;;;;;30.20;6.53;;;;;;;;;;4996271;28;20503;-79
2022/11/24 00:40:28;;;;;;;21.30;4.90;;;;;;;;;;4958478;28;20200;-79
2022/11/24 00:42:54;;;;;;;26.63;5.95;;;;;;;;;;4974167;28;20421;-79
2022/11/24 00:45:20;;;;;;;23.73;4.83;;;;;;;;;;4959921;28;20191;-79
2022/11/24 00:47:46;;;;;;;21.95;5.13;;;;;;;;;;4957581;28;20461;-79
2022/11/24 00:50:12;;;;;;;21.17;4.93;;;;;;;;;;4953049;28;20179;-79
2022/11/24 00:52:38;;;;;;;20.07;4.90;;;;;;;;;;4975345;28;20186;-79
2022/11/24 00:55:04;;;;;;;19.07;4.73;;;;;;;;;;4963152;28;20178;-79
2022/11/24 00:57:30;;;;;;;23.33;5.20;;;;;;;;;;4961948;28;20189;-79
2022/11/24 00:59:56;;;;;;;23.60;5.50;;;;;;;;;;4978360;28;20404;-79
2022/11/24 01:02:22;;;;;;;21.67;5.25;;;;;;;;;;4969499;28;20450;-79
2022/11/24 01:04:48;;;;;;;22.77;4.90;;;;;;;;;;4982262;28;20204;-79
2022/11/24 01:07:14;;;;;;;19.57;4.50;;;;;;;;;;4982205;28;20209;-79
2022/11/24 01:09:42;;;;;;;23.02;5.35;;;;;;;;;;4997804;28;20411;-80
2022/11/24 01:12:08;;;;;;;20.73;5.07;;;;;;;;;;4978463;28;20228;-79
2022/11/24 01:14:34;;;;;;;21.53;4.73;;;;;;;;;;4982570;28;20181;-79
2022/11/24 01:17:00;;;;;;;19.63;4.50;;;;;;;;;;5010983;23;20251;-81
2022/11/24 01:19:26;;;;;;;23.40;5.15;;;;;;;;;;5000655;28;20424;-81
2022/11/24 01:21:52;;;;;;;26.70;4.93;;;;;;;;;;5000452;28;20182;-79
2022/11/24 01:24:18;;;;;;;22.77;4.67;;;;;;;;;;5017331;28;20180;-79
2022/11/24 01:26:44;;;;;;;18.87;4.40;;;;;;;;;;5000641;28;20279;-79
2022/11/24 01:29:11;;;;;;;21.33;4.90;;;;;;;;;;5017069;28;20235;-81
2022/11/24 01:31:37;;;;;;;20.75;4.57;;;;;;;;;;5000615;28;20568;-82
2022/11/24 01:34:03;;;;;;;18.57;4.70;;;;;;;;;;5017470;28;20179;-82
2022/11/24 01:36:29;;;;;;;22.80;4.40;;;;;;;;;;5000988;28;20268;-82
2022/11/24 01:38:55;;;;;;;22.10;4.63;;;;;;;;;;5001091;28;20260;-80
2022/11/24 01:41:23;;;;;;;17.33;4.70;;;;;;;;;;5034724;28;20177;-80
2022/11/24 01:43:49;;;;;;;23.83;4.47;;;;;;;;;;5035091;28;20204;-80
2022/11/24 01:46:15;;;;;;;21.37;4.90;;;;;;;;;;5016897;28;20183;-79
2022/11/24 01:48:44;;;;;;;21.07;4.37;;;;;;;;;;5016243;28;20204;-79
2022/11/24 01:51:13;;;;;;;19.80;4.40;;;;;;;;;;5034322;28;20204;-79
2022/11/24 01:53:40;;;;;;;23.63;5.00;;;;;;;;;;5015488;28;20250;-79
2022/11/24 01:56:07;;;;;;;18.00;4.37;;;;;;;;;;5016533;28;20228;-82
2022/11/24 01:58:34;;;;;;;14.77;4.10;;;;;;;;;;5016617;28;20191;-82
2022/11/24 02:01:00;;;;;;;16.23;4.07;;;;;;;;;;4996400;28;20279;-82
2022/11/24 02:03:28;;;;;;;22.60;4.80;;;;;;;;;;4995705;28;20436;-82
2022/11/24 02:06:21;;;;;;;18.17;4.80;;;;;;;;;;4998640;28;20267;-82
2022/11/24 02:08:47;;;;;;;25.40;5.70;;;;;;;;;;4992040;28;20423;-82
2022/11/24 02:11:13;;;;;;;16.60;4.30;;;;;;;;;;4997013;28;20181;-79
2022/11/24 02:13:39;;;;;;;21.60;4.07;;;;;;;;;;4991314;28;20184;-79
2022/11/24 02:16:11;;;;;;;18.30;4.47;;;;;;;;;;5016381;28;20267;-79
2022/11/24 02:18:38;;;;;;;16.17;4.37;;;;;;;;;;5016192;28;20286;-79
2022/11/24 02:21:04;;;;;;;15.47;3.50;;;;;;;;;;5016277;28;20176;-79
2022/11/24 02:23:33;;;;;;;18.33;4.27;;;;;;;;;;4999932;28;20192;-79
2022/11/24 02:26:08;;;;;;;14.67;3.90;;;;;;;;;;5032845;28;20192;-79
2022/11/24 02:28:34;;;;;;;12.33;4.03;;;;;;;;;;5015748;28;20219;-79
2022/11/24 02:31:01;;;;;;;18.07;4.73;;;;;;;;;;4999144;28;20199;-80
2022/11/24 02:33:27;;;;;;;16.83;4.27;;;;;;;;;;5015978;28;20184;-82
2022/11/24 02:35:53;;;;;;;22.17;4.40;;;;;;;;;;4999867;28;20447;-82
2022/11/24 02:38:28;;;;;;;21.03;4.33;;;;;;;;;;5016183;28;20219;-82
2022/11/24 02:40:54;;;;;;;17.03;4.17;;;;;;;;;;5012002;28;20192;-82
2022/11/24 02:43:22;;;;;;;24.03;4.40;;;;;;;;;;4980376;28;20189;-82
2022/11/24 02:45:48;;;;;;;17.77;3.67;;;;;;;;;;4996474;28;20260;-79
2022/11/24 02:48:15;;;;;;;25.80;4.77;;;;;;;;;;5012738;28;20212;-79
2022/11/24 02:50:40;;;;;;;17.33;3.90;;;;;;;;;;5009121;28;20203;-79
2022/11/24 02:53:07;;;;;;;19.77;4.63;;;;;;;;;;5000328;28;20173;-79
2022/11/24 02:55:33;;;;;;;22.40;5.13;;;;;;;;;;5016275;28;20176;-79
2022/11/24 02:57:59;;;;;;;18.73;4.57;;;;;;;;;;5015686;28;20202;-79
2022/11/24 03:00:25;;;;;;;18.37;4.37;;;;;;;;;;5000074;28;20219;-79
2022/11/24 03:02:51;;;;;;;18.97;4.10;;;;;;;;;;4999744;28;20220;-81
2022/11/24 03:05:17;;;;;;;18.40;4.03;;;;;;;;;;4999771;28;20283;-81
2022/11/24 03:07:43;;;;;;;20.80;4.72;;;;;;;;;;4998904;28;20447;-81
2022/11/24 03:10:09;;;;;;;23.47;4.70;;;;;;;;;;5016224;28;20235;-80
2022/11/24 03:12:35;;;;;;;15.47;4.53;;;;;;;;;;5016476;28;20184;-80
2022/11/24 03:15:02;;;;;;;23.90;4.27;;;;;;;;;;5016203;28;20214;-81
2022/11/24 03:17:28;;;;;;;18.67;5.03;;;;;;;;;;5016187;28;20229;-81
2022/11/24 03:19:54;;;;;;;20.03;4.90;;;;;;;;;;4996901;28;20200;-81
2022/11/24 03:22:20;;;;;;;23.10;4.50;;;;;;;;;;4984133;28;20185;-80
2022/11/24 03:24:46;;;;;;;20.38;4.55;;;;;;;;;;4984724;28;20485;-80
2022/11/24 03:27:12;;;;;;;19.70;4.50;;;;;;;;;;5019618;28;20177;-81
2022/11/24 03:29:38;;;;;;;22.47;4.17;;;;;;;;;;5003574;28;20180;-81
2022/11/24 03:32:04;;;;;;;22.17;4.97;;;;;;;;;;5003339;28;20429;-80
2022/11/24 03:34:30;;;;;;;21.70;5.40;;;;;;;;;;5002781;28;20418;-80
2022/11/24 03:36:57;;;;;;;21.83;5.27;;;;;;;;;;5018732;28;20433;-79
2022/11/24 03:39:23;;;;;;;19.45;4.90;;;;;;;;;;5018640;28;20460;-79
2022/11/24 03:41:50;;;;;;;21.70;4.83;;;;;;;;;;5019473;28;20180;-79
2022/11/24 03:44:16;;;;;;;25.03;4.33;;;;;;;;;;5003105;28;20176;-82
2022/11/24 03:46:42;;;;;;;26.00;5.23;;;;;;;;;;5002992;28;20192;-82
2022/11/24 03:49:08;;;;;;;20.70;4.57;;;;;;;;;;5018172;28;20212;-82
2022/11/24 03:51:34;;;;;;;22.40;4.30;;;;;;;;;;5003066;28;20196;-80
2022/11/24 03:54:01;;;;;;;20.87;4.93;;;;;;;;;;5019451;28;20185;-80
2022/11/24 03:56:27;;;;;;;22.43;4.77;;;;;;;;;;5036715;28;20234;-80
2022/11/24 03:58:53;;;;;;;23.00;4.70;;;;;;;;;;5019065;28;20185;-79
2022/11/24 04:01:19;;;;;;;21.20;5.03;;;;;;;;;;5018603;28;20199;-79
2022/11/24 04:03:45;;;;;;;19.80;4.73;;;;;;;;;;5003008;28;20215;-80
2022/11/24 04:06:11;;;;;;;19.30;4.53;;;;;;;;;;5002256;28;20193;-80
2022/11/24 04:08:37;;;;;;;24.13;4.53;;;;;;;;;;5011999;28;20209;-82
2022/11/24 04:11:03;;;;;;;26.13;5.30;;;;;;;;;;4993625;28;20188;-80
2022/11/24 04:13:29;;;;;;;21.63;4.50;;;;;;;;;;5035497;28;20195;-80
2022/11/24 04:15:55;;;;;;;23.13;4.77;;;;;;;;;;5002995;28;20181;-80
2022/11/24 04:18:21;;;;;;;23.47;4.70;;;;;;;;;;5002135;28;20236;-79
2022/11/24 04:20:50;;;;;;;21.43;4.97;;;;;;;;;;5002739;28;20177;-79
2022/11/24 04:23:17;;;;;;;21.37;4.40;;;;;;;;;;5002449;28;20191;-79
2022/11/24 04:25:43;;;;;;;20.93;4.87;;;;;;;;;;5018488;28;20181;-79
2022/11/24 04:28:09;;;;;;;23.00;5.20;;;;;;;;;;5018512;28;20291;-79
2022/11/24 04:30:37;;;;;;;24.10;4.23;;;;;;;;;;5002130;28;20275;-82
2022/11/24 04:33:03;;;;;;;16.13;4.27;;;;;;;;;;5034930;28;20169;-82
2022/11/24 04:35:29;;;;;;;19.27;4.63;;;;;;;;;;5036241;28;20204;-82
2022/11/24 04:37:55;;;;;;;23.63;5.13;;;;;;;;;;5002144;28;20215;-82
2022/11/24 04:40:21;;;;;;;21.47;4.70;;;;;;;;;;5000921;28;20180;-82
2022/11/24 04:42:55;;;;;;;22.20;4.37;;;;;;;;;;5001690;28;20276;-80
2022/11/24 04:45:22;;;;;;;25.93;4.97;;;;;;;;;;5046991;28;20303;-80
2022/11/24 04:47:48;;;;;;;16.43;3.97;;;;;;;;;;5018542;28;20214;-80
2022/11/24 04:50:14;;;;;;;17.73;4.73;;;;;;;;;;5017936;28;20189;-80
2022/11/24 04:52:40;;;;;;;20.07;4.77;;;;;;;;;;5002226;28;20275;-80
2022/11/24 04:55:07;;;;;;;28.33;4.77;;;;;;;;;;5002033;28;20223;-80
2022/11/24 04:57:33;;;;;;;17.63;4.30;;;;;;;;;;5018374;28;20231;-80
2022/11/24 04:59:59;;;;;;;22.00;5.03;;;;;;;;;;5018107;28;20197;-80
2022/11/24 05:02:24;;;;;;;21.47;5.33;;;;;;;;;;5035716;28;20383;-79
2022/11/24 05:04:50;;;;;;;22.27;5.07;;;;;;;;;;5002075;28;20268;-79
2022/11/24 05:07:18;;;;;;;23.10;5.20;;;;;;;;;;5035060;28;20189;-79
2022/11/24 05:12:30;;;;;;;19.80;4.30;;;;;;;;;;5023771;28;20207;-79
2022/11/24 05:14:59;;;;;;;22.90;4.43;;;;;;;;;;5001307;28;20258;-79
2022/11/24 05:17:29;;;;;;;25.70;4.40;;;;;;;;;;5033897;28;20224;-79
2022/11/24 05:19:56;;;;;;;22.50;4.90;;;;;;;;;;5017974;28;20276;-80
2022/11/24 05:22:22;;;;;;;19.53;4.47;;;;;;;;;;5001469;28;20216;-80
2022/11/24 05:24:48;;;;;;;19.90;4.70;;;;;;;;;;5001252;28;20185;-80
2022/11/24 05:27:14;;;;;;;19.27;4.97;;;;;;;;;;5001367;28;20239;-80
2022/11/24 05:29:40;;;;;;;17.37;4.13;;;;;;;;;;5017476;28;20191;-80
2022/11/24 05:32:06;;;;;;;22.13;4.80;;;;;;;;;;5017587;28;20184;-82
2022/11/24 05:34:32;;;;;;;20.37;4.60;;;;;;;;;;5017705;28;20180;-82
2022/11/24 05:37:01;;;;;;;17.30;4.03;;;;;;;;;;5042786;28;20173;-82
2022/11/24 05:39:28;;;;;;;16.40;3.67;;;;;;;;;;5001741;28;20184;-82
2022/11/24 05:41:54;;;;;;;15.13;3.70;;;;;;;;;;5000919;28;20184;-82
2022/11/24 05:44:20;;;;;;;17.07;3.67;;;;;;;;;;5033051;28;20172;-83
2022/11/24 05:46:46;;;;;;;16.13;4.10;;;;;;;;;;5033734;28;20203;-82
2022/11/24 05:49:12;;;;;;;17.20;4.10;;;;;;;;;;5017381;28;20205;-80
2022/11/24 05:51:38;;;;;;;12.80;3.63;;;;;;;;;;5000685;28;20188;-79
2022/11/24 05:54:05;;;;;;;18.50;3.90;;;;;;;;;;5017582;28;20181;-80
2022/11/24 05:56:31;;;;;;;15.43;3.80;;;;;;;;;;5033084;28;20215;-80
2022/11/24 05:58:57;;;;;;;15.97;4.10;;;;;;;;;;5034490;28;20267;-80
2022/11/24 06:01:23;;;;;;;12.37;3.60;;;;;;;;;;5001012;28;20212;-79
2022/11/24 06:03:49;;;;;;;11.00;3.70;;;;;;;;;;5000642;28;20187;-79
2022/11/24 06:06:15;;;;;;;14.20;3.30;;;;;;;;;;4997295;28;20235;-82
2022/11/24 06:08:41;;;;;;;8.90;3.17;;;;;;;;;;4997254;28;20259;-82
2022/11/24 06:11:19;;;;;;;11.63;3.47;;;;;;;;;;4981076;28;20192;-82
2022/11/24 06:13:45;;;;;;;11.23;3.73;;;;;;;;;;4982761;28;20185;-82
2022/11/24 06:16:12;;;;;;;11.27;3.93;;;;;;;;;;4997300;28;20268;-82
2022/11/24 06:18:38;;;;;;;9.30;3.20;;;;;;;;;;4980622;28;20260;-82
2022/11/24 06:21:04;;;;;;;9.40;3.30;;;;;;;;;;5005209;28;20205;-81
2022/11/24 06:23:30;;;;;;;10.77;3.57;;;;;;;;;;5014924;28;20187;-80
2022/11/24 06:25:57;;;;;;;9.17;3.23;;;;;;;;;;5015682;28;20222;-80
2022/11/24 06:28:23;;;;;;;10.63;3.30;;;;;;;;;;4999346;28;20243;-81
2022/11/24 06:30:49;;;;;;;12.17;3.87;;;;;;;;;;5012446;28;20239;-80
2022/11/24 06:33:16;;;;;;;9.60;3.80;;;;;;;;;;5000097;28;20172;-80
2022/11/24 06:35:42;;;;;;;9.83;3.40;;;;;;;;;;5000240;28;20188;-81
2022/11/24 06:38:08;;;;;;;11.33;3.40;;;;;;;;;;5033222;28;20180;-81
2022/11/24 06:40:34;;;;;;;9.33;3.20;;;;;;;;;;5000086;28;20185;-81
2022/11/24 06:43:00;;;;;;;12.17;3.60;;;;;;;;;;5016627;28;20220;-81
2022/11/24 06:45:26;;;;;;;8.93;3.20;;;;;;;;;;4999833;28;20192;-81
2022/11/24 06:47:55;;;;;;;8.70;3.13;;;;;;;;;;5033230;28;20212;-81
2022/11/24 06:50:21;;;;;;;10.73;4.05;;;;;;;;;;4998122;28;20491;-81
2022/11/24 06:52:47;;;;;;;10.47;3.47;;;;;;;;;;4999787;28;20189;-81
2022/11/24 06:55:14;;;;;;;9.57;3.43;;;;;;;;;;5032103;28;20188;-80
2022/11/24 06:57:40;;;;;;;11.33;3.17;;;;;;;;;;5004373;28;20207;-81
2022/11/24 07:00:09;;;;;;;12.23;3.40;;;;;;;;;;5020434;28;20180;-81
2022/11/24 07:02:36;;;;;;;11.13;3.20;;;;;;;;;;5016713;28;20235;-82
2022/11/24 07:05:02;;;;;;;9.33;3.53;;;;;;;;;;5001214;28;20219;-80
2022/11/24 07:07:28;;;;;;;9.03;3.17;;;;;;;;;;5002860;28;20241;-79
2022/11/24 07:09:54;;;;;;;11.23;3.13;;;;;;;;;;4994584;28;20177;-80
2022/11/24 07:12:20;;;;;;;8.50;3.07;;;;;;;;;;5011554;28;20193;-80
2022/11/24 07:14:46;;;;;;;10.13;3.40;;;;;;;;;;5003564;28;20196;-80
2022/11/24 07:17:12;;;;;;;10.70;3.97;;;;;;;;;;5006032;28;20228;-80
2022/11/24 07:19:38;;;;;;;8.07;4.53;;;;;;;;;;5023238;28;20180;-80
2022/11/24 07:22:04;;;;;;;8.23;5.03;;;;;;;;;;5028532;28;20176;-79
2022/11/24 07:24:30;;;;;;;7.97;5.40;;;;;;;;;;5019694;28;20181;-79
2022/11/24 07:26:56;;;;;;;10.53;6.27;;;;;;;;;;5003295;28;20199;-79
2022/11/24 07:29:22;;;;;;;10.80;6.20;;;;;;;;;;5019328;28;20213;-80
2022/11/24 07:31:48;;;;;;;11.00;6.67;;;;;;;;;;5019492;28;20187;-80
2022/11/24 07:34:14;;;;;;;11.87;6.63;;;;;;;;;;5019797;28;20173;-80
2022/11/24 07:36:41;;;;;;;10.07;6.70;;;;;;;;;;5003721;28;20181;-80
2022/11/24 07:39:07;;;;;;;11.87;7.30;;;;;;;;;;5003851;28;20907;-80
2022/11/24 07:41:33;;;;;;;10.70;8.20;;;;;;;;;;5001863;28;20197;-80
2022/11/24 07:43:59;;;;;;;12.33;7.93;;;;;;;;;;5002977;28;20188;-80
2022/11/24 07:46:25;;;;;;;14.03;7.83;;;;;;;;;;5001659;28;20255;-80
2022/11/24 07:48:51;;;;;;;11.87;7.33;;;;;;;;;;4999243;28;20217;-80
2022/11/24 07:51:17;;;;;;;10.67;7.20;;;;;;;;;;4999773;28;20182;-80
2022/11/24 07:53:44;;;;;;;13.85;8.63;;;;;;;;;;5033265;28;20445;-80
2022/11/24 07:56:11;;;;;;;16.13;8.17;;;;;;;;;;5019640;28;20263;-80
2022/11/24 07:58:37;;;;;;;14.17;7.40;;;;;;;;;;5035799;28;20203;-80
2022/11/24 08:01:11;;;;;;;13.03;7.80;;;;;;;;;;5018648;28;20187;-80
2022/11/24 08:03:37;;;;;;;12.90;7.13;;;;;;;;;;5019167;28;20184;-79
2022/11/24 08:06:03;;;;;;;15.23;8.13;;;;;;;;;;4999710;28;20199;-80
2022/11/24 08:08:32;;;;;;;11.03;7.90;;;;;;;;;;5033991;28;20212;-79
2022/11/24 08:11:03;;;;;;;13.87;8.40;;;;;;;;;;5017633;28;20187;-79
2022/11/24 08:13:29;;;;;;;14.37;8.97;;;;;;;;;;5004998;28;20193;-79
2022/11/24 08:15:55;;;;;;;12.27;9.13;;;;;;;;;;4996244;28;20244;-79
2022/11/24 08:18:23;;;;;;;12.00;9.07;;;;;;;;;;4983327;28;20336;-80
2022/11/24 08:20:49;;;;;;;11.83;9.23;;;;;;;;;;5007116;28;20181;-80
2022/11/24 08:23:15;;;;;;;12.97;9.37;;;;;;;;;;5018144;28;20192;-80
2022/11/24 08:25:41;;;;;;;15.23;9.20;;;;;;;;;;5018024;28;20181;-80
2022/11/24 08:28:07;;;;;;;13.40;8.87;;;;;;;;;;5018558;28;20211;-80
2022/11/24 08:30:33;;;;;;;14.13;9.37;;;;;;;;;;5002711;28;20177;-79
2022/11/24 08:32:59;;;;;;;11.90;8.60;;;;;;;;;;4998794;28;20182;-80
2022/11/24 08:35:26;;;;;;;11.90;7.50;;;;;;;;;;4999115;28;20174;-80
2022/11/24 08:37:52;;;;;;;12.83;7.53;;;;;;;;;;4982616;28;20255;-80
2022/11/24 08:40:18;;;;;;;13.10;7.60;;;;;;;;;;5016988;28;20303;-80
2022/11/24 08:42:44;;;;;;;13.43;7.23;;;;;;;;;;5002297;28;20211;-80
2022/11/24 08:45:10;;;;;;;11.20;6.63;;;;;;;;;;5007300;28;20277;-79
2022/11/24 08:47:36;;;;;;;12.10;6.23;;;;;;;;;;5035800;28;20215;-80
2022/11/24 08:50:02;;;;;;;13.20;6.13;;;;;;;;;;5018942;28;20169;-81
2022/11/24 08:52:28;;;;;;;11.43;5.73;;;;;;;;;;5018624;28;20176;-80
2022/11/24 08:54:54;;;;;;;9.03;5.93;;;;;;;;;;5001840;28;20231;-80
2022/11/24 08:57:20;;;;;;;13.73;6.00;;;;;;;;;;5035711;28;20177;-80
2022/11/24 08:59:46;;;;;;;14.87;5.50;;;;;;;;;;5035720;28;20187;-79
2022/11/24 09:02:13;;;;;;;13.10;5.60;;;;;;;;;;5017643;28;20292;-79
2022/11/24 09:04:39;;;;;;;11.33;5.80;;;;;;;;;;5035391;28;20267;-79
2022/11/24 09:07:05;;;;;;;11.30;5.60;;;;;;;;;;5001916;28;20208;-79
2022/11/24 09:09:31;;;;;;;10.87;5.73;;;;;;;;;;5017718;28;20204;-79
2022/11/24 09:11:57;;;;;;;15.03;6.00;;;;;;;;;;5018912;28;20189;-80
2022/11/24 09:14:23;;;;;;;15.93;6.50;;;;;;;;;;4998683;28;20177;-79
2022/11/24 09:16:49;;;;;;;14.10;6.37;;;;;;;;;;5049895;22;20259;-80
2022/11/24 09:19:15;;;;;;;11.53;5.67;;;;;;;;;;5016887;28;20276;-79
2022/11/24 09:21:41;;;;;;;12.43;5.67;;;;;;;;;;5038807;28;20237;-78
2022/11/24 09:24:08;;;;;;;13.10;6.07;;;;;;;;;;5037448;28;20183;-82
2022/11/24 09:26:35;;;;;;;10.80;5.37;;;;;;;;;;5038079;28;20282;-88
2022/11/24 09:29:02;;;;;;;12.30;6.27;;;;;;;;;;5037593;28;20207;-88
2022/11/24 09:31:30;;;;;;;12.67;4.90;;;;;;;;;;5048384;28;20176;-88
2022/11/24 09:33:56;;;;;;;10.03;5.30;;;;;;;;;;5017819;28;20184;-89
2022/11/24 09:36:23;;;;;;;10.73;4.50;;;;;;;;;;5017562;28;20176;-88
2022/11/24 09:38:49;;;;;;;10.87;4.53;;;;;;;;;;5043797;28;20188;-88
2022/11/24 09:41:35;;;;;;;12.40;4.37;;;;;;;;;;5058394;28;20187;-81
2022/11/24 09:44:16;;;;;;;12.23;4.70;;;;;;;;;;5037963;28;20184;-80
2022/11/24 09:47:01;;;;;;;15.33;5.40;;;;;;;;;;5036272;28;20192;-80
2022/11/24 09:49:34;;;;;;;11.60;4.43;;;;;;;;;;5023925;28;20316;-81
2022/11/24 09:52:02;;;;;;;11.60;5.00;;;;;;;;;;5034722;28;20183;-81
2022/11/24 09:54:30;;;;;;;11.70;4.40;;;;;;;;;;5017008;28;20176;-80
2022/11/24 09:56:59;;;;;;;12.43;4.00;;;;;;;;;;5034704;28;20168;-81
2022/11/24 09:59:26;;;;;;;12.83;3.87;;;;;;;;;;5034659;28;20184;-77
2022/11/24 10:01:53;;;;;;;12.90;3.83;;;;;;;;;;5025591;28;20185;-77
2022/11/24 10:04:19;;;;;;;10.97;3.53;;;;;;;;;;5036750;28;20218;-77
2022/11/24 10:06:45;;;;;;;9.00;3.20;;;;;;;;;;5054451;28;20183;-77
2022/11/24 10:09:14;;;;;;;7.20;2.90;;;;;;;;;;5053304;28;20270;-78
2022/11/24 10:11:45;;;;;;;7.53;3.30;;;;;;;;;;5036744;28;20176;-78
2022/11/24 10:14:17;;;;;;;10.57;3.30;;;;;;;;;;5028019;28;20198;-78
2022/11/24 10:16:46;;;;;;;9.07;3.03;;;;;;;;;;5036916;28;20219;-81
2022/11/24 10:19:13;;;;;;;9.93;3.70;;;;;;;;;;5035640;28;20190;-80
2022/11/24 10:22:14;;;;;;;6.90;3.20;;;;;;;;;;5033098;28;20181;-81
2022/11/24 10:24:43;;;;;;;10.33;3.30;;;;;;;;;;4969606;28;20189;-89
2022/11/24 10:27:17;;;;;;;8.83;3.90;;;;;;;;;;5029816;28;20179;-89
2022/11/24 10:29:43;;;;;;;9.93;3.57;;;;;;;;;;5036550;28;20191;-88
2022/11/24 10:32:18;;;;;;;8.83;3.73;;;;;;;;;;5040531;28;20290;-82
2022/11/24 10:34:45;;;;;;;9.23;3.90;;;;;;;;;;5035814;28;20404;-81
2022/11/24 10:37:15;;;;;;;11.83;3.50;;;;;;;;;;5036345;28;20249;-82
2022/11/24 10:39:49;;;;;;;9.60;2.90;;;;;;;;;;5053351;28;20267;-83
2022/11/24 10:42:18;;;;;;;6.83;3.03;;;;;;;;;;5036264;28;20187;-84
2022/11/24 10:44:44;;;;;;;9.23;3.80;;;;;;;;;;5036026;28;20218;-83
2022/11/24 10:47:17;;;;;;;10.77;3.80;;;;;;;;;;5019468;28;20419;-83
2022/11/24 10:49:46;;;;;;;11.07;3.50;;;;;;;;;;5035498;28;20176;-83
2022/11/24 10:52:15;;;;;;;9.40;2.97;;;;;;;;;;5035456;28;20183;-83
2022/11/24 10:54:55;;;;;;;8.53;3.40;;;;;;;;;;5033668;28;20184;-84
2022/11/24 10:57:27;;;;;;;11.53;3.70;;;;;;;;;;5036166;28;20188;-83
2022/11/24 10:59:53;;;;;;;9.47;3.27;;;;;;;;;;5035452;28;20184;-81
2022/11/24 11:02:36;;;;;;;8.97;3.30;;;;;;;;;;5033689;28;20181;-81
2022/11/24 11:05:21;;;;;;;11.93;4.47;;;;;;;;;;5064109;28;20284;-80
2022/11/24 11:07:47;;;;;;;13.87;3.90;;;;;;;;;;5073093;28;20236;-80
2022/11/24 11:10:18;;;;;;;8.77;3.90;;;;;;;;;;5058594;28;20574;-80
2022/11/24 11:12:44;;;;;;;13.53;3.77;;;;;;;;;;5035229;28;20192;-80
2022/11/24 11:15:23;;;;;;;11.63;3.90;;;;;;;;;;5036074;28;20188;-80
2022/11/24 11:17:53;;;;;;;12.40;3.47;;;;;;;;;;5035730;28;20238;-89
2022/11/24 11:20:24;;;;;;;11.70;3.37;;;;;;;;;;5052553;28;20180;-90
2022/11/24 11:22:50;;;;;;;14.70;4.27;;;;;;;;;;5048508;28;20211;-83
2022/11/24 11:25:18;;;;;;;12.50;3.93;;;;;;;;;;5034853;28;20180;-82
2022/11/24 11:27:44;;;;;;;15.50;4.23;;;;;;;;;;5044186;28;20206;-83
2022/11/24 11:30:24;;;;;;;15.27;4.17;;;;;;;;;;5035840;28;20258;-82
2022/11/24 11:32:53;;;;;;;12.30;3.80;;;;;;;;;;5034836;28;20180;-82
2022/11/24 11:35:19;;;;;;;14.63;3.90;;;;;;;;;;5053253;28;20180;-82
2022/11/24 11:37:46;;;;;;;12.43;3.93;;;;;;;;;;5035960;28;20214;-83
2022/11/24 11:40:24;;;;;;;13.13;4.00;;;;;;;;;;5036101;28;20215;-82
2022/11/24 11:42:52;;;;;;;14.93;3.80;;;;;;;;;;5038946;28;20184;-83
2022/11/24 11:45:21;;;;;;;13.30;3.50;;;;;;;;;;5039081;28;20184;-83
2022/11/24 11:47:56;;;;;;;13.13;3.87;;;;;;;;;;5039412;28;20235;-83
2022/11/24 11:50:25;;;;;;;15.43;3.90;;;;;;;;;;5038281;28;20255;-77
2022/11/24 11:53:05;;;;;;;16.48;4.32;;;;;;;;;;5042244;28;20413;-77
2022/11/24 11:55:43;;;;;;;17.43;4.50;;;;;;;;;;5035428;28;20179;-77
2022/11/24 11:58:36;;;;;;;19.53;4.93;;;;;;;;;;5038850;28;20207;-86
2022/11/24 12:01:17;;;;;;;15.70;4.47;;;;;;;;;;5023833;28;20206;-86
2022/11/24 12:03:55;;;;;;;15.47;4.67;;;;;;;;;;5038795;28;20209;-86
2022/11/24 12:06:24;;;;;;;18.50;4.83;;;;;;;;;;5038703;28;20194;-77
2022/11/24 12:09:09;;;;;;;17.53;4.60;;;;;;;;;;5038758;28;20614;-81
2022/11/24 12:11:37;;;;;;;14.47;4.80;;;;;;;;;;5056294;28;20214;-85
2022/11/24 12:14:22;;;;;;;22.30;4.80;;;;;;;;;;5038851;28;20187;-85
2022/11/24 12:17:18;;;;;;;20.67;4.73;;;;;;;;;;5038657;28;21342;-85
2022/11/24 12:20:02;;;;;;;15.20;4.30;;;;;;;;;;5039862;28;20235;-84
2022/11/24 12:22:47;;;;;;;15.33;4.83;;;;;;;;;;5038912;28;20172;-85
2022/11/24 12:25:16;;;;;;;16.90;4.27;;;;;;;;;;5038705;28;20176;-85
2022/11/24 12:27:48;;;;;;;15.83;4.27;;;;;;;;;;5038357;28;20207;-85
2022/11/24 12:30:16;;;;;;;17.77;4.47;;;;;;;;;;5038615;28;20172;-77
2022/11/24 12:32:42;;;;;;;22.03;4.60;;;;;;;;;;5038567;28;20172;-77
2022/11/24 12:35:08;;;;;;;17.87;4.33;;;;;;;;;;5056533;28;20175;-77
2022/11/24 12:37:43;;;;;;;20.70;5.07;;;;;;;;;;5038740;28;20172;-77
2022/11/24 12:40:27;;;;;;;17.93;4.50;;;;;;;;;;5038458;28;20172;-77
2022/11/24 12:42:57;;;;;;;17.20;4.43;;;;;;;;;;5038576;28;20219;-77
2022/11/24 12:45:43;;;;;;;20.90;4.90;;;;;;;;;;5039026;28;20191;-80
2022/11/24 12:48:28;;;;;;;15.20;4.30;;;;;;;;;;4998742;28;20208;-80
2022/11/24 12:50:54;;;;;;;16.77;4.47;;;;;;;;;;5038041;28;20183;-80
2022/11/24 12:53:23;;;;;;;18.03;4.00;;;;;;;;;;5021586;28;20176;-80
2022/11/24 12:55:49;;;;;;;17.47;4.80;;;;;;;;;;5038543;28;20186;-80
2022/11/24 12:58:15;;;;;;;22.60;5.00;;;;;;;;;;5038468;28;20208;-80
2022/11/24 13:00:41;;;;;;;22.77;4.83;;;;;;;;;;5038203;28;20171;-80
2022/11/24 13:03:19;;;;;;;18.27;3.93;;;;;;;;;;5037878;28;20187;-78
2022/11/24 13:05:46;;;;;;;22.47;5.10;;;;;;;;;;5039084;28;20226;-77
2022/11/24 13:08:14;;;;;;;15.10;4.30;;;;;;;;;;5038267;28;20242;-85
2022/11/24 13:10:40;;;;;;;16.77;4.20;;;;;;;;;;5055594;28;20172;-84
2022/11/24 13:13:08;;;;;;;18.63;4.53;;;;;;;;;;5021322;28;20270;-85
2022/11/24 13:15:52;;;;;;;21.60;4.43;;;;;;;;;;5037838;28;20175;-84
2022/11/24 13:18:37;;;;;;;19.03;4.30;;;;;;;;;;5055310;28;20223;-80
2022/11/24 13:21:03;;;;;;;16.03;4.50;;;;;;;;;;5037439;28;20247;-80
2022/11/24 13:23:29;;;;;;;21.90;4.20;;;;;;;;;;5037884;28;20330;-80
2022/11/24 13:26:15;;;;;;;13.57;4.20;;;;;;;;;;5021183;28;20191;-80
2022/11/24 13:29:01;;;;;;;18.63;4.37;;;;;;;;;;5037772;28;20207;-80
2022/11/24 13:31:27;;;;;;;16.63;4.63;;;;;;;;;;5037367;28;20175;-80
2022/11/24 13:33:53;;;;;;;18.33;4.33;;;;;;;;;;5021016;28;20176;-80
2022/11/24 13:36:25;;;;;;;17.60;4.50;;;;;;;;;;5037628;28;20176;-80
2022/11/24 13:38:52;;;;;;;14.63;4.10;;;;;;;;;;5037357;28;20207;-80
2022/11/24 13:41:33;;;;;;;17.33;4.23;;;;;;;;;;5037248;28;20176;-81
2022/11/24 13:44:15;;;;;;;16.33;4.00;;;;;;;;;;5037380;28;20191;-80
2022/11/24 13:46:57;;;;;;;17.07;4.30;;;;;;;;;;5037173;28;20191;-80
2022/11/24 13:49:23;;;;;;;17.13;3.97;;;;;;;;;;5020697;28;20241;-80
2022/11/24 13:52:21;;;;;;;18.20;4.57;;;;;;;;;;5115188;27;1296548;-81
2022/11/24 13:54:47;;;;;;;20.33;4.10;;;;;;;;;;5131794;28;20184;-81
2022/11/24 13:57:33;;;;;;;22.30;4.43;;;;;;;;;;5114355;28;20188;-81
2022/11/24 14:00:03;;;;;;;21.20;4.07;;;;;;;;;;5131188;28;20169;-81
2022/11/24 14:02:29;;;;;;;19.23;4.13;;;;;;;;;;5131648;28;20226;-81
2022/11/24 14:04:57;;;;;;;20.13;4.57;;;;;;;;;;5114370;28;20260;-81
2022/11/24 14:07:23;;;;;;;15.43;4.40;;;;;;;;;;5131295;28;20184;-81
2022/11/24 14:09:50;;;;;;;14.70;4.13;;;;;;;;;;5131077;28;20180;-86
2022/11/24 14:12:16;;;;;;;15.13;3.97;;;;;;;;;;5114342;28;20173;-86
2022/11/24 14:14:43;;;;;;;13.47;3.67;;;;;;;;;;5130933;28;20248;-85
2022/11/24 14:17:15;;;;;;;19.43;4.70;;;;;;;;;;5132312;28;20215;-84
2022/11/24 14:19:42;;;;;;;19.47;4.33;;;;;;;;;;5131525;28;20252;-86
2022/11/24 14:22:34;;;;;;;17.90;4.30;;;;;;;;;;5114018;28;20185;-86
2022/11/24 14:25:01;;;;;;;15.67;4.03;;;;;;;;;;5126451;28;20177;-81
2022/11/24 14:27:38;;;;;;;19.20;4.43;;;;;;;;;;5131515;28;20205;-81
2022/11/24 14:30:16;;;;;;;17.23;4.13;;;;;;;;;;5131127;28;20284;-81
2022/11/24 14:32:55;;;;;;;15.73;4.43;;;;;;;;;;5131269;28;20202;-81
2022/11/24 14:35:24;;;;;;;16.47;4.37;;;;;;;;;;5130885;28;20180;-81
2022/11/24 14:37:50;;;;;;;17.80;3.97;;;;;;;;;;5131238;28;20173;-81
2022/11/24 14:40:35;;;;;;;17.03;3.83;;;;;;;;;;5130898;28;20192;-81
2022/11/24 14:43:02;;;;;;;18.70;4.27;;;;;;;;;;5130765;28;20177;-81